createdAt,value
2023-09-17T00:00:30.311Z,1.50
2023-09-17T00:01:30.442Z,1.60
2023-09-17T00:02:30.333Z,1.60
2023-09-17T00:03:30.418Z,1.60
2023-09-17T00:04:30.335Z,1.50
2023-09-17T00:05:30.302Z,1.50
2023-09-17T00:06:30.203Z,1.60
2023-09-17T00:07:30.264Z,1.70
2023-09-17T00:08:30.181Z,1.60
2023-09-17T00:09:30.277Z,1.90
2023-09-17T00:10:30.162Z,1.60
2023-09-17T00:11:30.239Z,1.70
2023-09-17T00:12:30.123Z,1.70
2023-09-17T00:13:30.175Z,1.70
2023-09-17T00:14:30.111Z,1.90
2023-09-17T00:15:30.217Z,1.60
2023-09-17T00:16:30.167Z,1.80
2023-09-17T00:17:30.138Z,1.60
2023-09-17T00:18:30.050Z,1.70
2023-09-17T00:19:30.115Z,1.70
2023-09-17T00:20:30.023Z,1.70
2023-09-17T00:21:30.089Z,1.90
2023-09-17T00:22:30.021Z,1.70
2023-09-17T00:23:30.071Z,1.70
2023-09-17T00:24:29.971Z,1.70
2023-09-17T00:25:30.057Z,1.80
2023-09-17T00:26:29.948Z,1.60
2023-09-17T00:27:30.001Z,1.60
2023-09-17T00:28:29.970Z,1.70
2023-09-17T00:29:29.968Z,1.70
2023-09-17T00:30:29.954Z,1.90
2023-09-17T00:31:30.034Z,2.20
2023-09-17T00:32:29.916Z,1.80
2023-09-17T00:33:29.955Z,1.80
2023-09-17T00:34:29.867Z,1.80
2023-09-17T00:35:29.909Z,1.70
2023-09-17T00:36:29.818Z,1.90
2023-09-17T00:37:29.829Z,2.00
2023-09-17T00:38:29.792Z,1.80
2023-09-17T00:39:29.892Z,2.00
2023-09-17T00:40:29.809Z,1.90
2023-09-17T00:41:29.839Z,2.00
2023-09-17T00:42:29.739Z,1.80
2023-09-17T00:43:29.792Z,1.90
2023-09-17T00:44:29.697Z,1.90
2023-09-17T00:45:29.828Z,1.80
2023-09-17T00:46:29.722Z,1.60
2023-09-17T00:47:29.703Z,1.80
2023-09-17T00:48:29.655Z,2.00
2023-09-17T00:49:29.823Z,1.90
2023-09-17T00:50:29.639Z,1.70
2023-09-17T00:51:29.760Z,1.80
2023-09-17T00:52:29.622Z,2.10
2023-09-17T00:54:59.953Z,1.80
2023-09-17T00:55:38.896Z,1.90
2023-09-17T00:56:38.931Z,1.70
2023-09-17T00:57:38.817Z,2.00
2023-09-17T00:58:38.907Z,1.90
2023-09-17T00:59:38.796Z,2.10
2023-09-17T01:00:38.897Z,2.00
2023-09-17T01:01:38.828Z,1.80
2023-09-17T01:02:41.165Z,2.00
2023-09-17T01:03:38.872Z,1.90
2023-09-17T01:04:38.839Z,1.90
2023-09-17T01:05:38.725Z,1.90
2023-09-17T01:06:38.740Z,2.10
2023-09-17T01:07:38.847Z,2.00
2023-09-17T01:08:38.836Z,2.00
2023-09-17T01:09:38.664Z,2.10
2023-09-17T01:10:38.790Z,2.20
2023-09-17T01:11:38.642Z,2.00
2023-09-17T01:12:38.682Z,2.00
2023-09-17T01:13:38.699Z,2.20
2023-09-17T01:14:38.641Z,1.80
2023-09-17T01:15:38.612Z,2.20
2023-09-17T01:16:38.674Z,1.80
2023-09-17T01:17:38.600Z,2.00
2023-09-17T01:18:38.617Z,1.80
2023-09-17T01:19:38.586Z,2.10
2023-09-17T01:20:38.584Z,1.90
2023-09-17T01:21:38.518Z,1.90
2023-09-17T01:22:38.558Z,2.10
2023-09-17T01:23:38.472Z,1.90
2023-09-17T01:24:38.569Z,2.10
2023-09-17T01:25:38.492Z,2.10
2023-09-17T01:26:38.525Z,2.30
2023-09-17T01:27:38.424Z,1.90
2023-09-17T01:28:38.507Z,2.30
2023-09-17T01:29:38.477Z,2.20
2023-09-17T01:30:38.415Z,1.90
2023-09-17T01:31:38.395Z,1.70
2023-09-17T01:32:38.491Z,1.80
2023-09-17T01:33:38.373Z,1.90
2023-09-17T01:34:38.473Z,1.90
2023-09-17T01:35:38.316Z,1.90
2023-09-17T01:36:38.341Z,2.20
2023-09-17T01:37:38.316Z,2.20
2023-09-17T01:38:38.313Z,2.00
2023-09-17T01:39:38.263Z,2.00
2023-09-17T01:40:38.301Z,2.10
2023-09-17T01:41:38.237Z,2.00
2023-09-17T01:42:38.283Z,2.10
2023-09-17T01:43:38.249Z,2.30
2023-09-17T01:44:38.264Z,2.10
2023-09-17T01:45:38.210Z,2.10
2023-09-17T01:46:38.276Z,2.10
2023-09-17T01:47:38.195Z,2.20
2023-09-17T01:48:38.228Z,2.10
2023-09-17T01:49:38.139Z,1.90
2023-09-17T01:50:38.204Z,2.00
2023-09-17T01:51:38.108Z,2.00
2023-09-17T01:52:38.163Z,1.90
2023-09-17T01:53:38.076Z,2.10
2023-09-17T01:54:38.169Z,2.00
2023-09-17T01:55:38.067Z,2.30
2023-09-17T01:56:38.141Z,2.30
2023-09-17T01:57:38.035Z,2.20
2023-09-17T01:58:38.127Z,1.80
2023-09-17T01:59:38.008Z,2.00
2023-09-17T02:00:38.010Z,2.00
2023-09-17T02:01:38.184Z,2.20
2023-09-17T02:02:38.218Z,2.10
2023-09-17T02:03:38.029Z,2.10
2023-09-17T02:04:38.065Z,2.10
2023-09-17T02:05:37.931Z,2.10
2023-09-17T02:06:37.949Z,2.30
2023-09-17T02:07:37.962Z,2.20
2023-09-17T02:08:37.961Z,2.10
2023-09-17T02:09:37.870Z,2.40
2023-09-17T02:10:37.927Z,2.00
2023-09-17T02:11:37.843Z,2.30
2023-09-17T02:12:37.895Z,2.30
2023-09-17T02:13:37.870Z,2.20
2023-09-17T02:14:37.851Z,2.00
2023-09-17T02:15:37.875Z,2.00
2023-09-17T02:16:37.854Z,1.90
2023-09-17T02:17:37.807Z,2.00
2023-09-17T02:18:37.846Z,2.00
2023-09-17T02:19:37.768Z,2.00
2023-09-17T02:20:37.792Z,2.10
2023-09-17T02:21:37.700Z,2.00
2023-09-17T02:22:37.787Z,2.00
2023-09-17T02:23:37.673Z,2.20
2023-09-17T02:24:37.768Z,1.80
2023-09-17T02:25:37.766Z,2.20
2023-09-17T02:26:37.732Z,2.30
2023-09-17T02:27:37.620Z,2.30
2023-09-17T02:28:37.728Z,2.00
2023-09-17T02:29:37.593Z,2.20
2023-09-17T02:30:37.636Z,2.20
2023-09-17T02:31:37.640Z,2.30
2023-09-17T02:32:37.740Z,2.10
2023-09-17T02:33:37.540Z,2.20
2023-09-17T02:34:37.671Z,2.00
2023-09-17T02:35:37.507Z,2.10
2023-09-17T02:36:37.595Z,2.30
2023-09-17T02:37:37.531Z,2.10
2023-09-17T02:38:37.509Z,2.00
2023-09-17T02:39:37.458Z,2.30
2023-09-17T02:40:37.542Z,2.00
2023-09-17T02:41:37.452Z,2.10
2023-09-17T02:42:37.492Z,2.10
2023-09-17T02:43:37.463Z,2.00
2023-09-17T02:44:37.460Z,2.40
2023-09-17T02:45:37.375Z,2.30
2023-09-17T02:46:37.456Z,2.30
2023-09-17T02:47:37.437Z,2.30
2023-09-17T02:48:37.447Z,2.30
2023-09-17T02:49:37.344Z,2.20
2023-09-17T02:50:37.401Z,2.10
2023-09-17T02:51:37.301Z,2.10
2023-09-17T02:52:37.395Z,2.10
2023-09-17T02:53:37.275Z,2.20
2023-09-17T02:54:37.413Z,2.00
2023-09-17T02:55:37.260Z,2.10
2023-09-17T02:56:37.339Z,2.30
2023-09-17T02:57:37.235Z,2.20
2023-09-17T02:58:37.343Z,2.20
2023-09-17T02:59:37.194Z,2.20
2023-09-17T03:00:40.069Z,2.30
2023-09-17T03:01:37.201Z,2.20
2023-09-17T03:02:37.355Z,2.20
2023-09-17T03:03:37.171Z,1.90
2023-09-17T03:04:37.300Z,2.10
2023-09-17T03:05:37.113Z,2.50
2023-09-17T03:06:37.157Z,2.10
2023-09-17T03:07:37.136Z,2.20
2023-09-17T03:08:37.119Z,2.10
2023-09-17T03:09:37.065Z,2.10
2023-09-17T03:10:37.136Z,2.10
2023-09-17T03:11:37.033Z,2.30
2023-09-17T03:12:37.094Z,2.10
2023-09-17T03:13:37.028Z,2.10
2023-09-17T03:14:37.057Z,2.30
2023-09-17T03:15:36.985Z,2.30
2023-09-17T03:16:37.165Z,2.30
2023-09-17T03:17:37.062Z,2.10
2023-09-17T03:18:37.042Z,2.20
2023-09-17T03:19:36.973Z,2.30
2023-09-17T03:20:37.003Z,2.50
2023-09-17T03:21:36.899Z,2.30
2023-09-17T03:22:36.973Z,2.00
2023-09-17T03:23:36.876Z,2.10
2023-09-17T03:24:37.324Z,2.20
2023-09-17T03:25:36.901Z,2.10
2023-09-17T03:26:36.954Z,2.20
2023-09-17T03:27:36.834Z,2.30
2023-09-17T03:28:38.972Z,2.20
2023-09-17T03:29:36.802Z,2.50
2023-09-17T03:30:36.835Z,2.10
2023-09-17T03:31:36.802Z,2.20
2023-09-17T03:32:46.327Z,2.20
2023-09-17T03:33:37.810Z,2.20
2023-09-17T03:34:36.942Z,2.10
2023-09-17T03:35:36.710Z,2.10
2023-09-17T03:36:36.786Z,2.30
2023-09-17T03:37:36.779Z,2.10
2023-09-17T03:38:36.732Z,2.40
2023-09-17T03:39:36.666Z,2.10
2023-09-17T03:40:36.724Z,2.40
2023-09-17T03:41:36.639Z,2.40
2023-09-17T03:42:36.701Z,2.20
2023-09-17T03:43:36.633Z,2.10
2023-09-17T03:44:36.703Z,2.30
2023-09-17T03:45:36.590Z,2.30
2023-09-17T03:46:36.712Z,2.30
2023-09-17T03:47:36.591Z,2.70
2023-09-17T03:48:36.637Z,2.50
2023-09-17T03:49:36.608Z,2.50
2023-09-17T03:50:36.617Z,2.60
2023-09-17T03:51:36.503Z,2.30
2023-09-17T03:52:36.591Z,2.30
2023-09-17T03:53:36.489Z,2.40
2023-09-17T03:54:36.480Z,2.30
2023-09-17T03:55:36.533Z,2.20
2023-09-17T03:56:36.600Z,2.40
2023-09-17T03:57:36.420Z,2.50
2023-09-17T03:58:36.553Z,2.10
2023-09-17T03:59:36.397Z,2.20
2023-09-17T04:00:36.419Z,2.20
2023-09-17T04:01:36.449Z,2.30
2023-09-17T04:02:36.620Z,2.20
2023-09-17T04:03:36.373Z,2.10
2023-09-17T04:04:36.384Z,2.30
2023-09-17T04:05:36.354Z,2.30
2023-09-17T04:06:36.481Z,2.40
2023-09-17T04:07:36.321Z,2.50
2023-09-17T04:08:36.344Z,2.50
2023-09-17T04:09:36.268Z,2.20
2023-09-17T04:10:36.352Z,2.20
2023-09-17T04:11:36.238Z,2.40
2023-09-17T04:12:36.304Z,2.20
2023-09-17T04:13:36.261Z,2.00
2023-09-17T04:14:36.269Z,2.30
2023-09-17T04:15:36.178Z,2.30
2023-09-17T04:16:36.292Z,2.20
2023-09-17T04:17:36.176Z,2.20
2023-09-17T04:18:36.239Z,2.30
2023-09-17T04:19:36.198Z,2.40
2023-09-17T04:20:36.213Z,2.30
2023-09-17T04:21:36.100Z,2.40
2023-09-17T04:22:36.183Z,2.40
2023-09-17T04:23:36.069Z,2.40
2023-09-17T04:24:36.079Z,1.90
2023-09-17T04:25:36.124Z,2.20
2023-09-17T04:26:36.159Z,2.30
2023-09-17T04:27:36.035Z,2.00
2023-09-17T04:28:36.165Z,2.40
2023-09-17T04:29:36.003Z,2.10
2023-09-17T04:30:36.028Z,2.30
2023-09-17T04:31:36.043Z,2.70
2023-09-17T04:32:36.788Z,2.30
2023-09-17T04:34:45.347Z,1.90
2023-09-17T04:35:45.170Z,2.10
2023-09-17T04:36:45.188Z,2.40
2023-09-17T04:37:45.182Z,2.30
2023-09-17T04:38:45.199Z,2.20
2023-09-17T04:39:45.110Z,2.20
2023-09-17T04:40:46.192Z,2.20
2023-09-17T04:41:45.091Z,2.60
2023-09-17T04:42:45.137Z,2.40
2023-09-17T04:43:45.121Z,2.50
2023-09-17T04:44:45.153Z,2.70
2023-09-17T04:45:45.054Z,2.30
2023-09-17T04:46:45.062Z,2.20
2023-09-17T04:47:45.081Z,2.20
2023-09-17T04:48:45.071Z,2.20
2023-09-17T04:49:45.059Z,2.50
2023-09-17T04:50:47.881Z,2.30
2023-09-17T04:51:44.962Z,2.40
2023-09-17T04:52:45.027Z,2.50
2023-09-17T04:53:44.923Z,2.20
2023-09-17T04:54:45.013Z,2.50
2023-09-17T04:55:44.962Z,2.30
2023-09-17T04:56:44.954Z,2.30
2023-09-17T04:57:44.867Z,2.20
2023-09-17T04:58:44.982Z,2.40
2023-09-17T04:59:44.843Z,2.50
2023-09-17T05:00:44.853Z,2.40
2023-09-17T05:01:44.914Z,2.60
2023-09-17T05:02:44.966Z,2.30
2023-09-17T05:03:44.893Z,2.20
2023-09-17T05:04:45.059Z,2.40
2023-09-17T05:05:44.780Z,2.40
2023-09-17T05:06:44.824Z,2.20
2023-09-17T05:07:44.855Z,2.50
2023-09-17T05:08:44.806Z,2.70
2023-09-17T05:09:44.710Z,2.50
2023-09-17T05:10:44.740Z,2.40
2023-09-17T05:11:44.675Z,2.60
2023-09-17T05:12:44.744Z,2.40
2023-09-17T05:13:44.690Z,2.40
2023-09-17T05:14:44.768Z,2.60
2023-09-17T05:15:44.648Z,2.70
2023-09-17T05:16:44.716Z,2.70
2023-09-17T05:17:44.690Z,2.40
2023-09-17T05:18:44.673Z,2.30
2023-09-17T05:19:44.634Z,2.50
2023-09-17T05:20:44.584Z,2.20
2023-09-17T05:21:44.547Z,2.30
2023-09-17T05:22:44.627Z,2.80
2023-09-17T05:23:44.531Z,2.30
2023-09-17T05:24:44.614Z,2.40
2023-09-17T05:25:44.546Z,2.40
2023-09-17T05:26:44.527Z,2.20
2023-09-17T05:27:44.468Z,2.30
2023-09-17T05:28:44.627Z,2.30
2023-09-17T05:29:44.445Z,2.20
2023-09-17T05:30:44.458Z,2.40
2023-09-17T05:31:44.576Z,2.30
2023-09-17T05:32:44.523Z,2.30
2023-09-17T05:33:44.379Z,2.20
2023-09-17T05:34:44.405Z,2.30
2023-09-17T05:35:44.355Z,2.40
2023-09-17T05:36:44.393Z,2.20
2023-09-17T05:37:44.397Z,2.30
2023-09-17T05:38:44.416Z,2.10
2023-09-17T05:39:44.297Z,2.40
2023-09-17T05:40:44.352Z,2.30
2023-09-17T05:41:44.275Z,2.40
2023-09-17T05:42:44.332Z,2.80
2023-09-17T05:43:44.297Z,2.40
2023-09-17T05:44:44.266Z,2.70
2023-09-17T05:45:44.237Z,2.50
2023-09-17T05:46:44.344Z,2.40
2023-09-17T05:47:44.247Z,2.40
2023-09-17T05:48:44.281Z,2.40
2023-09-17T05:49:44.198Z,2.60
2023-09-17T05:50:44.343Z,2.50
2023-09-17T05:51:44.131Z,2.60
2023-09-17T05:52:44.233Z,2.30
2023-09-17T05:53:44.116Z,2.50
2023-09-17T05:54:44.123Z,2.20
2023-09-17T05:55:44.128Z,2.30
2023-09-17T05:56:46.233Z,2.30
2023-09-17T05:57:44.082Z,2.30
2023-09-17T05:58:44.174Z,2.70
2023-09-17T05:59:44.033Z,2.40
2023-09-17T06:00:44.062Z,2.70
2023-09-17T06:01:44.116Z,2.50
2023-09-17T06:02:44.082Z,2.80
2023-09-17T06:03:44.066Z,2.60
2023-09-17T06:04:44.002Z,2.60
2023-09-17T06:05:43.954Z,2.80
2023-09-17T06:06:44.013Z,2.80
2023-09-17T06:07:43.991Z,3.00
2023-09-17T06:08:44.016Z,2.80
2023-09-17T06:09:43.903Z,2.80
2023-09-17T06:10:43.970Z,2.70
2023-09-17T06:11:43.880Z,2.80
2023-09-17T06:12:43.944Z,2.60
2023-09-17T06:13:43.949Z,2.60
2023-09-17T06:14:43.860Z,2.50
2023-09-17T06:15:43.841Z,2.70
2023-09-17T06:16:56.566Z,2.80
2023-09-17T06:17:44.821Z,2.70
2023-09-17T06:18:43.889Z,2.70
2023-09-17T06:19:43.812Z,2.50
2023-09-17T06:20:43.803Z,2.60
2023-09-17T06:21:43.742Z,2.60
2023-09-17T06:22:45.889Z,2.60
2023-09-17T06:23:43.734Z,2.40
2023-09-17T06:24:43.734Z,2.70
2023-09-17T06:25:43.754Z,2.70
2023-09-17T06:26:43.759Z,2.80
2023-09-17T06:27:43.657Z,2.70
2023-09-17T06:28:43.844Z,2.70
2023-09-17T06:29:43.632Z,2.60
2023-09-17T06:30:43.669Z,2.70
2023-09-17T06:31:43.701Z,2.60
2023-09-17T06:32:43.703Z,2.70
2023-09-17T06:33:43.576Z,2.60
2023-09-17T06:34:43.617Z,2.70
2023-09-17T06:35:43.550Z,2.90
2023-09-17T06:36:43.609Z,2.80
2023-09-17T06:37:43.566Z,2.60
2023-09-17T06:38:43.622Z,2.70
2023-09-17T06:39:43.501Z,2.60
2023-09-17T06:40:43.541Z,2.70
2023-09-17T06:41:43.584Z,3.00
2023-09-17T06:42:43.547Z,2.40
2023-09-17T06:43:43.525Z,2.50
2023-09-17T06:44:43.468Z,2.60
2023-09-17T06:45:43.414Z,2.50
2023-09-17T06:46:43.538Z,2.40
2023-09-17T06:47:43.570Z,2.90
2023-09-17T06:48:43.387Z,2.70
2023-09-17T06:49:43.435Z,2.20
2023-09-17T06:50:43.406Z,2.70
2023-09-17T06:51:43.339Z,2.70
2023-09-17T06:52:44.039Z,2.30
2023-09-17T06:53:43.999Z,2.50
2023-09-17T06:54:43.909Z,2.50
2023-09-17T06:55:43.322Z,2.50
2023-09-17T06:56:43.359Z,2.40
2023-09-17T06:57:43.253Z,2.60
2023-09-17T06:58:43.285Z,2.30
2023-09-17T06:59:43.222Z,2.60
2023-09-17T07:00:43.305Z,2.50
2023-09-17T07:01:43.263Z,2.00
2023-09-17T07:02:43.324Z,2.50
2023-09-17T07:03:43.168Z,2.30
2023-09-17T07:04:43.289Z,2.40
2023-09-17T07:05:43.139Z,2.40
2023-09-17T07:06:43.229Z,2.30
2023-09-17T07:07:43.163Z,2.20
2023-09-17T07:08:43.125Z,2.30
2023-09-17T07:09:43.093Z,2.20
2023-09-17T07:10:43.158Z,2.40
2023-09-17T07:11:43.059Z,2.40
2023-09-17T07:13:04.092Z,2.20
2023-09-17T07:13:43.057Z,2.20
2023-09-17T07:14:43.063Z,2.20
2023-09-17T07:15:43.001Z,2.40
2023-09-17T07:16:43.160Z,2.30
2023-09-17T07:17:43.208Z,2.10
2023-09-17T07:18:43.042Z,2.20
2023-09-17T07:19:42.966Z,1.80
2023-09-17T07:20:43.000Z,2.20
2023-09-17T07:21:42.926Z,1.80
2023-09-17T07:22:43.096Z,2.60
2023-09-17T07:23:42.904Z,2.10
2023-09-17T07:24:42.993Z,2.20
2023-09-17T07:25:42.931Z,2.30
2023-09-17T07:27:03.943Z,2.50
2023-09-17T07:27:42.843Z,2.40
2023-09-17T07:28:42.876Z,2.30
2023-09-17T07:29:42.813Z,2.10
2023-09-17T07:30:42.960Z,2.00
2023-09-17T07:31:43.467Z,1.90
2023-09-17T07:32:43.617Z,2.20
2023-09-17T07:33:43.479Z,2.20
2023-09-17T07:34:43.653Z,2.20
2023-09-17T07:35:42.739Z,2.30
2023-09-17T07:36:42.764Z,2.20
2023-09-17T07:37:51.047Z,2.10
2023-09-17T07:38:43.711Z,2.10
2023-09-17T07:39:42.738Z,2.50
2023-09-17T07:40:42.682Z,2.40
2023-09-17T07:41:42.758Z,2.40
2023-09-17T07:42:42.688Z,2.10
2023-09-17T07:43:42.680Z,2.30
2023-09-17T07:44:42.614Z,2.20
2023-09-17T07:45:42.678Z,2.40
2023-09-17T07:46:42.692Z,2.00
2023-09-17T07:47:42.719Z,2.30
2023-09-17T07:48:42.589Z,2.20
2023-09-17T07:49:42.680Z,2.20
2023-09-17T07:50:42.544Z,2.40
2023-09-17T07:51:42.624Z,2.20
2023-09-17T07:52:42.524Z,2.50
2023-09-17T07:53:42.529Z,2.20
2023-09-17T07:54:42.522Z,2.30
2023-09-17T07:55:42.587Z,2.30
2023-09-17T07:56:42.474Z,2.40
2023-09-17T07:57:42.557Z,1.50
2023-09-17T07:58:42.442Z,2.50
2023-09-17T07:59:42.469Z,2.30
2023-09-17T08:00:42.428Z,2.00
2023-09-17T08:01:42.599Z,2.60
2023-09-17T08:02:42.708Z,2.50
2023-09-17T08:03:42.511Z,2.30
2023-09-17T08:04:42.383Z,2.40
2023-09-17T08:05:42.408Z,2.20
2023-09-17T08:06:42.361Z,2.20
2023-09-17T08:08:03.449Z,2.30
2023-09-17T08:08:42.319Z,2.30
2023-09-17T08:09:42.338Z,2.30
2023-09-17T08:10:42.314Z,2.10
2023-09-17T08:11:42.351Z,2.70
2023-09-17T08:12:42.281Z,2.20
2023-09-17T08:13:42.411Z,2.20
2023-09-17T08:14:42.231Z,2.40
2023-09-17T08:15:42.280Z,2.20
2023-09-17T08:16:42.249Z,2.40
2023-09-17T08:17:42.357Z,2.20
2023-09-17T08:18:42.197Z,1.90
2023-09-17T08:19:42.241Z,2.20
2023-09-17T08:20:42.141Z,2.40
2023-09-17T08:21:42.221Z,2.10
2023-09-17T08:22:42.175Z,2.10
2023-09-17T08:23:42.131Z,2.30
2023-09-17T08:24:42.169Z,2.10
2023-09-17T08:25:42.334Z,2.30
2023-09-17T08:26:42.062Z,1.90
2023-09-17T08:28:07.379Z,1.90
2023-09-17T08:28:42.060Z,2.20
2023-09-17T08:29:42.073Z,2.20
2023-09-17T08:30:42.165Z,2.40
2023-09-17T08:31:42.122Z,2.00
2023-09-17T08:32:42.008Z,2.10
2023-09-17T08:33:42.000Z,2.00
2023-09-17T08:34:41.969Z,2.00
2023-09-17T08:35:42.013Z,2.40
2023-09-17T08:36:41.943Z,2.20
2023-09-17T08:37:42.117Z,2.10
2023-09-17T08:38:41.903Z,2.30
2023-09-17T08:39:41.944Z,2.00
2023-09-17T08:40:41.910Z,2.30
2023-09-17T08:41:41.956Z,2.30
2023-09-17T08:42:41.871Z,2.20
2023-09-17T08:43:41.929Z,2.00
2023-09-17T08:44:41.823Z,2.20
2023-09-17T08:45:41.884Z,2.10
2023-09-17T08:46:41.964Z,2.10
2023-09-17T08:47:41.879Z,1.80
2023-09-17T08:48:41.800Z,2.10
2023-09-17T08:49:41.822Z,2.00
2023-09-17T08:50:41.747Z,2.10
2023-09-17T08:51:41.833Z,2.20
2023-09-17T08:52:41.753Z,2.20
2023-09-17T08:53:41.740Z,2.00
2023-09-17T08:54:41.714Z,2.00
2023-09-17T08:55:41.780Z,2.20
2023-09-17T08:56:41.658Z,2.00
2023-09-17T08:57:41.668Z,2.10
2023-09-17T08:58:41.686Z,2.10
2023-09-17T08:59:41.705Z,1.80
2023-09-17T09:00:41.626Z,2.30
2023-09-17T09:01:41.755Z,2.40
2023-09-17T09:02:41.741Z,2.30
2023-09-17T09:03:41.698Z,1.90
2023-09-17T09:04:41.617Z,2.00
2023-09-17T09:05:41.623Z,2.20
2023-09-17T09:06:41.547Z,2.10
2023-09-17T09:07:41.551Z,2.50
2023-09-17T09:08:41.502Z,2.10
2023-09-17T09:09:41.557Z,2.20
2023-09-17T09:10:41.503Z,2.10
2023-09-17T09:11:41.580Z,2.40
2023-09-17T09:12:41.461Z,2.00
2023-09-17T09:13:41.503Z,2.20
2023-09-17T09:14:41.458Z,2.30
2023-09-17T09:15:41.508Z,2.20
2023-09-17T09:16:41.414Z,2.20
2023-09-17T09:17:41.471Z,2.20
2023-09-17T09:18:41.385Z,2.10
2023-09-17T09:19:41.446Z,2.20
2023-09-17T09:20:41.339Z,1.50
2023-09-17T09:21:41.452Z,2.40
2023-09-17T09:22:41.326Z,2.20
2023-09-17T09:23:41.348Z,2.00
2023-09-17T09:24:41.301Z,1.70
2023-09-17T09:25:41.454Z,1.60
2023-09-17T09:26:41.293Z,2.10
2023-09-17T09:27:41.273Z,1.60
2023-09-17T09:28:41.247Z,2.00
2023-09-17T09:29:41.303Z,2.00
2023-09-17T09:30:41.273Z,2.10
2023-09-17T09:31:41.373Z,1.80
2023-09-17T09:32:41.286Z,2.10
2023-09-17T09:33:41.258Z,2.10
2023-09-17T09:34:41.167Z,2.20
2023-09-17T09:35:41.229Z,2.20
2023-09-17T09:36:41.154Z,2.20
2023-09-17T09:37:41.157Z,2.10
2023-09-17T09:38:41.091Z,1.90
2023-09-17T09:39:41.159Z,2.30
2023-09-17T09:40:41.127Z,2.10
2023-09-17T09:41:41.070Z,2.30
2023-09-17T09:42:41.147Z,2.10
2023-09-17T09:43:42.282Z,2.20
2023-09-17T09:44:41.743Z,2.10
2023-09-17T09:45:41.759Z,2.30
2023-09-17T09:46:41.711Z,2.00
2023-09-17T09:47:43.290Z,1.90
2023-09-17T09:48:41.011Z,2.10
2023-09-17T09:49:41.048Z,2.20
2023-09-17T09:50:40.933Z,1.80
2023-09-17T09:51:40.938Z,1.80
2023-09-17T09:52:40.928Z,2.00
2023-09-17T09:53:40.948Z,1.90
2023-09-17T09:54:40.900Z,2.10
2023-09-17T09:55:41.034Z,2.40
2023-09-17T09:56:40.853Z,2.20
2023-09-17T09:57:41.269Z,1.90
2023-09-17T09:58:40.885Z,1.80
2023-09-17T09:59:40.898Z,2.00
2023-09-17T10:00:40.834Z,1.30
2023-09-17T10:01:40.860Z,1.80
2023-09-17T10:02:40.804Z,2.00
2023-09-17T10:03:40.825Z,1.90
2023-09-17T10:04:40.903Z,1.90
2023-09-17T10:05:40.839Z,1.50
2023-09-17T10:06:40.740Z,1.60
2023-09-17T10:07:40.780Z,1.70
2023-09-17T10:08:40.705Z,2.00
2023-09-17T10:09:40.767Z,2.10
2023-09-17T10:10:40.701Z,1.60
2023-09-17T10:11:40.694Z,1.50
2023-09-17T10:12:40.672Z,1.90
2023-09-17T10:13:40.732Z,1.60
2023-09-17T10:14:40.626Z,1.60
2023-09-17T10:15:40.738Z,1.10
2023-09-17T10:16:40.624Z,1.50
2023-09-17T10:17:40.660Z,1.70
2023-09-17T10:18:40.592Z,2.30
2023-09-17T10:19:40.794Z,2.10
2023-09-17T10:20:40.543Z,2.00
2023-09-17T10:21:40.554Z,2.00
2023-09-17T10:22:40.532Z,2.00
2023-09-17T10:23:40.559Z,1.90
2023-09-17T10:24:40.597Z,1.90
2023-09-17T10:25:40.639Z,1.70
2023-09-17T10:26:40.453Z,1.40
2023-09-17T10:27:40.492Z,1.90
2023-09-17T10:28:40.439Z,2.00
2023-09-17T10:29:40.501Z,1.90
2023-09-17T10:30:40.433Z,1.90
2023-09-17T10:31:40.552Z,2.00
2023-09-17T10:32:40.400Z,1.90
2023-09-17T10:33:40.424Z,1.90
2023-09-17T10:34:40.442Z,1.80
2023-09-17T10:35:40.440Z,1.10
2023-09-17T10:36:40.340Z,1.70
2023-09-17T10:37:40.385Z,1.40
2023-09-17T10:38:40.375Z,1.70
2023-09-17T10:39:40.368Z,2.00
2023-09-17T10:40:40.307Z,1.80
2023-09-17T10:41:40.295Z,1.50
2023-09-17T10:42:40.263Z,1.90
2023-09-17T10:43:40.295Z,2.20
2023-09-17T10:44:40.214Z,1.50
2023-09-17T10:45:40.314Z,1.50
2023-09-17T10:46:40.225Z,1.60
2023-09-17T10:47:40.264Z,1.90
2023-09-17T10:48:40.178Z,1.90
2023-09-17T10:49:40.340Z,1.60
2023-09-17T10:50:40.141Z,1.80
2023-09-17T10:51:40.144Z,1.70
2023-09-17T10:52:40.141Z,1.60
2023-09-17T10:53:40.174Z,1.80
2023-09-17T10:54:40.096Z,1.70
2023-09-17T10:55:40.189Z,1.40
2023-09-17T10:56:40.054Z,1.60
2023-09-17T10:57:42.193Z,1.70
2023-09-17T10:58:40.071Z,1.70
2023-09-17T10:59:40.104Z,1.80
2023-09-17T11:00:40.053Z,2.10
2023-09-17T11:01:40.084Z,2.00
2023-09-17T11:02:40.078Z,1.70
2023-09-17T11:03:40.059Z,1.60
2023-09-17T11:04:40.009Z,1.70
2023-09-17T11:05:40.038Z,1.50
2023-09-17T11:06:39.931Z,1.70
2023-09-17T11:07:39.972Z,1.40
2023-09-17T11:08:39.893Z,1.60
2023-09-17T11:09:39.971Z,1.90
2023-09-17T11:10:39.923Z,1.90
2023-09-17T11:11:39.897Z,1.50
2023-09-17T11:12:39.872Z,1.80
2023-09-17T11:13:39.938Z,1.70
2023-09-17T11:14:39.814Z,1.90
2023-09-17T11:15:39.818Z,1.90
2023-09-17T11:16:39.843Z,1.80
2023-09-17T11:17:39.874Z,1.60
2023-09-17T11:18:39.781Z,1.50
2023-09-17T11:19:39.906Z,1.70
2023-09-17T11:20:39.738Z,1.60
2023-09-17T11:21:39.752Z,1.80
2023-09-17T11:22:39.752Z,1.50
2023-09-17T11:23:39.772Z,1.70
2023-09-17T11:24:39.707Z,1.80
2023-09-17T11:25:39.736Z,1.70
2023-09-17T11:26:39.680Z,1.70
2023-09-17T11:27:39.696Z,1.80
2023-09-17T11:28:39.764Z,1.50
2023-09-17T11:29:39.726Z,1.60
2023-09-17T11:30:39.654Z,1.50
2023-09-17T11:31:39.645Z,1.70
2023-09-17T11:32:39.622Z,1.60
2023-09-17T11:33:39.635Z,1.50
2023-09-17T11:34:39.591Z,1.40
2023-09-17T11:35:39.550Z,1.60
2023-09-17T11:36:39.540Z,1.40
2023-09-17T11:37:39.589Z,1.30
2023-09-17T11:38:39.497Z,1.60
2023-09-17T11:39:39.575Z,1.70
2023-09-17T11:40:39.524Z,1.60
2023-09-17T11:41:39.495Z,1.50
2023-09-17T11:42:39.459Z,1.40
2023-09-17T11:43:39.509Z,1.70
2023-09-17T11:44:39.424Z,1.50
2023-09-17T11:45:39.516Z,1.50
2023-09-17T11:46:39.445Z,1.50
2023-09-17T11:47:39.484Z,1.40
2023-09-17T11:48:39.385Z,1.80
2023-09-17T11:49:39.455Z,1.20
2023-09-17T11:50:39.335Z,1.00
2023-09-17T11:51:39.357Z,1.30
2023-09-17T11:52:39.336Z,1.50
2023-09-17T11:53:40.968Z,1.30
2023-09-17T11:54:39.325Z,1.40
2023-09-17T11:55:39.356Z,1.30
2023-09-17T11:56:39.256Z,1.50
2023-09-17T11:57:39.301Z,1.50
2023-09-17T11:58:39.242Z,1.70
2023-09-17T11:59:39.352Z,2.00
2023-09-17T12:00:39.219Z,1.60
2023-09-17T12:01:39.347Z,1.60
2023-09-17T12:02:39.314Z,1.50
2023-09-17T12:03:39.262Z,1.70
2023-09-17T12:04:40.152Z,1.60
2023-09-17T12:05:39.161Z,1.60
2023-09-17T12:06:39.146Z,1.70
2023-09-17T12:07:49.490Z,1.80
2023-09-17T12:08:40.209Z,1.40
2023-09-17T12:09:39.102Z,1.50
2023-09-17T12:10:39.105Z,1.40
2023-09-17T12:11:39.056Z,1.50
2023-09-17T12:12:39.178Z,1.60
2023-09-17T12:13:39.094Z,1.30
2023-09-17T12:14:39.131Z,1.40
2023-09-17T12:15:39.003Z,1.40
2023-09-17T12:16:39.113Z,1.40
2023-09-17T12:17:44.381Z,1.50
2023-09-17T12:18:40.045Z,1.40
2023-09-17T12:19:39.117Z,1.10
2023-09-17T12:20:39.000Z,1.30
2023-09-17T12:21:38.974Z,1.10
2023-09-17T12:22:38.936Z,1.50
2023-09-17T12:23:38.979Z,1.60
2023-09-17T12:24:38.907Z,1.60
2023-09-17T12:25:38.908Z,1.50
2023-09-17T12:26:38.858Z,1.60
2023-09-17T12:27:38.943Z,1.50
2023-09-17T12:28:38.854Z,1.50
2023-09-17T12:29:38.941Z,1.60
2023-09-17T12:30:38.881Z,1.30
2023-09-17T12:31:38.856Z,1.30
2023-09-17T12:32:38.784Z,1.30
2023-09-17T12:33:38.848Z,1.50
2023-09-17T12:34:38.770Z,1.40
2023-09-17T12:35:38.758Z,1.60
2023-09-17T12:36:38.738Z,1.40
2023-09-17T12:37:38.853Z,1.30
2023-09-17T12:38:38.711Z,1.60
2023-09-17T12:39:38.789Z,1.60
2023-09-17T12:40:38.713Z,1.70
2023-09-17T12:41:41.303Z,1.50
2023-09-17T12:42:38.667Z,1.70
2023-09-17T12:43:38.751Z,1.40
2023-09-17T12:44:38.621Z,1.50
2023-09-17T12:45:38.642Z,1.60
2023-09-17T12:46:38.640Z,1.40
2023-09-17T12:47:38.698Z,1.30
2023-09-17T12:48:38.616Z,1.60
2023-09-17T12:49:38.712Z,1.50
2023-09-17T12:50:38.568Z,1.60
2023-09-17T12:51:38.589Z,1.50
2023-09-17T12:52:38.567Z,1.40
2023-09-17T12:53:38.586Z,1.50
2023-09-17T12:54:38.507Z,1.70
2023-09-17T12:55:38.532Z,1.50
2023-09-17T12:56:38.463Z,1.50
2023-09-17T12:57:38.523Z,1.50
2023-09-17T12:58:38.447Z,1.50
2023-09-17T12:59:38.533Z,1.50
2023-09-17T13:00:38.427Z,0.90
2023-09-17T13:01:38.514Z,1.30
2023-09-17T13:02:38.492Z,1.30
2023-09-17T13:03:38.572Z,1.30
2023-09-17T13:04:38.407Z,1.30
2023-09-17T13:05:38.367Z,1.20
2023-09-17T13:06:38.342Z,1.20
2023-09-17T13:07:38.431Z,1.50
2023-09-17T13:08:38.361Z,1.30
2023-09-17T13:09:38.395Z,1.10
2023-09-17T13:10:38.347Z,1.30
2023-09-17T13:11:38.305Z,1.50
2023-09-17T13:12:38.268Z,1.30
2023-09-17T13:13:38.379Z,1.50
2023-09-17T13:14:38.221Z,1.10
2023-09-17T13:15:38.250Z,1.50
2023-09-17T13:16:38.275Z,1.30
2023-09-17T13:17:38.274Z,1.10
2023-09-17T13:18:38.184Z,1.60
2023-09-17T13:19:38.297Z,1.50
2023-09-17T13:20:38.146Z,1.50